createdAt,value
2018-04-14T00:02:24.271Z,17.62
2018-04-14T00:04:50.605Z,17.46
2018-04-14T00:07:16.981Z,17.21
2018-04-14T00:09:43.326Z,17.41
2018-04-14T00:12:09.657Z,17.48
2018-04-14T00:14:36.035Z,17.47
2018-04-14T00:17:02.402Z,17.58
2018-04-14T00:19:28.750Z,17.53
2018-04-14T00:21:55.088Z,17.35
2018-04-14T00:24:21.464Z,17.27
2018-04-14T00:26:47.797Z,17.35
2018-04-14T00:29:14.204Z,17.37
2018-04-14T00:31:40.552Z,17.12
2018-04-14T00:34:06.927Z,17.08
2018-04-14T00:36:33.269Z,17.04
2018-04-14T00:38:59.608Z,17.02
2018-04-14T00:41:25.953Z,17.08
2018-04-14T00:43:52.274Z,16.97
2018-04-14T00:46:18.778Z,16.92
2018-04-14T00:48:45.122Z,16.91
2018-04-14T00:51:11.482Z,17.04
2018-04-14T00:53:46.992Z,17.07
2018-04-14T00:56:13.413Z,16.91
2018-04-14T00:58:39.800Z,17.02
2018-04-14T01:01:06.145Z,17.07
2018-04-14T01:03:32.514Z,16.63
2018-04-14T01:05:58.950Z,16.78
2018-04-14T01:08:25.272Z,16.71
2018-04-14T01:10:51.631Z,16.52
2018-04-14T01:13:17.961Z,16.31
2018-04-14T01:15:44.371Z,16.07
2018-04-14T01:18:10.718Z,16.02
2018-04-14T01:20:37.063Z,16.01
2018-04-14T01:23:03.398Z,16.06
2018-04-14T01:25:29.750Z,16.27
2018-04-14T01:27:56.093Z,16.41
2018-04-14T01:30:22.433Z,16.25
2018-04-14T01:32:48.853Z,16.06
2018-04-14T01:35:15.199Z,16.12
2018-04-14T01:37:41.526Z,16.35
2018-04-14T01:40:07.860Z,16.07
2018-04-14T01:42:34.254Z,16.08
2018-04-14T01:45:00.586Z,16.38
2018-04-14T01:47:26.929Z,16.03
2018-04-14T01:49:53.286Z,16.40
2018-04-14T01:52:19.643Z,16.49
2018-04-14T01:54:45.987Z,16.49
2018-04-14T01:57:12.334Z,16.56
2018-04-14T01:59:38.671Z,16.54
2018-04-14T02:02:05.098Z,16.32
2018-04-14T02:04:31.442Z,16.35
2018-04-14T02:06:57.852Z,16.37
2018-04-14T02:09:24.167Z,16.27
2018-04-14T02:11:50.601Z,16.21
2018-04-14T02:14:16.930Z,16.28
2018-04-14T02:16:43.341Z,16.43
2018-04-14T02:19:09.693Z,16.42
2018-04-14T02:21:36.128Z,16.05
2018-04-14T02:24:02.458Z,15.98
2018-04-14T02:26:28.777Z,16.19
2018-04-14T02:28:55.128Z,16.18
2018-04-14T02:31:21.465Z,16.09
2018-04-14T02:33:47.802Z,16.04
2018-04-14T02:36:14.156Z,16.06
2018-04-14T02:38:40.483Z,16.20
2018-04-14T02:41:06.861Z,16.21
2018-04-14T02:43:33.194Z,16.12
2018-04-14T02:45:59.535Z,16.08
2018-04-14T02:48:25.879Z,16.10
2018-04-14T02:50:52.211Z,16.00
2018-04-14T02:53:18.542Z,15.81
2018-04-14T02:55:44.894Z,15.90
2018-04-14T02:58:11.275Z,15.96
2018-04-14T03:00:37.629Z,15.80
2018-04-14T03:03:04.063Z,15.55
2018-04-14T03:05:30.425Z,15.75
2018-04-14T03:07:56.766Z,15.74
2018-04-14T03:10:23.122Z,15.72
2018-04-14T03:12:49.449Z,15.76
2018-04-14T03:15:15.797Z,15.72
2018-04-14T03:17:42.118Z,15.72
2018-04-14T03:20:08.442Z,15.43
2018-04-14T03:22:34.786Z,15.58
2018-04-14T03:25:01.105Z,15.51
2018-04-14T03:27:27.457Z,15.15
2018-04-14T03:29:53.837Z,15.15
2018-04-14T03:32:20.186Z,15.25
2018-04-14T03:34:46.530Z,15.18
2018-04-14T03:37:12.886Z,15.41
2018-04-14T03:39:39.210Z,15.42
2018-04-14T03:42:05.558Z,15.30
2018-04-14T03:44:31.921Z,15.19
2018-04-14T03:46:58.250Z,15.23
2018-04-14T03:49:24.582Z,15.09
2018-04-14T03:51:50.942Z,15.39
2018-04-14T03:54:17.403Z,15.28
2018-04-14T03:56:43.790Z,15.35
2018-04-14T03:59:10.189Z,15.11
2018-04-14T04:01:36.580Z,15.25
2018-04-14T04:04:02.974Z,15.41
2018-04-14T04:06:29.318Z,15.30
2018-04-14T04:08:55.654Z,15.30
2018-04-14T04:11:21.983Z,15.39
2018-04-14T04:13:48.313Z,15.42
2018-04-14T04:16:14.654Z,15.27
2018-04-14T04:18:53.276Z,15.39
2018-04-14T04:21:31.817Z,15.35
2018-04-14T04:24:10.542Z,15.55
2018-04-14T04:26:37.692Z,15.64
2018-04-14T04:29:03.976Z,15.68
2018-04-14T04:31:30.192Z,15.76
2018-04-14T04:33:56.403Z,15.78
2018-04-14T04:36:22.604Z,15.71
2018-04-14T04:38:48.898Z,15.74
2018-04-14T04:41:15.105Z,15.69
2018-04-14T04:43:41.421Z,15.69
2018-04-14T04:46:07.758Z,15.64
2018-04-14T04:48:33.961Z,15.78
2018-04-14T04:51:00.237Z,15.92
2018-04-14T04:53:26.445Z,16.07
2018-04-14T04:55:52.646Z,16.09
2018-04-14T04:58:18.921Z,16.21
2018-04-14T05:00:45.137Z,16.19
2018-04-14T05:03:11.352Z,16.04
2018-04-14T05:05:37.683Z,15.68
2018-04-14T05:08:03.907Z,16.01
2018-04-14T05:10:30.113Z,16.21
2018-04-14T05:12:56.358Z,16.14
2018-04-14T05:15:22.598Z,16.29
2018-04-14T05:17:48.802Z,16.45
2018-04-14T05:20:15.065Z,16.64
2018-04-14T05:22:41.282Z,16.83
2018-04-14T05:25:07.485Z,16.98
2018-04-14T05:27:33.764Z,17.07
2018-04-14T05:29:59.980Z,17.19
2018-04-14T05:32:26.184Z,17.00
2018-04-14T05:34:52.394Z,16.95
2018-04-14T05:37:18.621Z,17.12
2018-04-14T05:39:44.859Z,17.01
2018-04-14T05:42:11.099Z,17.20
2018-04-14T05:44:37.317Z,17.11
2018-04-14T05:47:03.546Z,17.01
2018-04-14T05:49:29.778Z,17.10
2018-04-14T05:51:56.042Z,17.19
2018-04-14T05:54:22.258Z,17.24
2018-04-14T05:56:48.490Z,17.34
2018-04-14T05:59:14.866Z,17.39
2018-04-14T06:01:41.098Z,17.48
2018-04-14T06:04:07.306Z,17.72
2018-04-14T06:06:33.538Z,17.80
2018-04-14T06:08:59.790Z,17.52
2018-04-14T06:11:25.981Z,17.55
2018-04-14T06:13:52.214Z,17.63
2018-04-14T06:16:18.444Z,17.61
2018-04-14T06:18:44.665Z,17.64
2018-04-14T06:21:10.901Z,17.55
2018-04-14T06:23:37.143Z,17.75
2018-04-14T06:26:03.399Z,17.86
2018-04-14T06:28:29.801Z,18.04
2018-04-14T06:30:56.006Z,17.97
2018-04-14T06:33:22.230Z,17.81
2018-04-14T06:35:48.448Z,17.85
2018-04-14T06:38:14.698Z,18.05
2018-04-14T06:40:40.905Z,18.06
2018-04-14T06:43:07.131Z,17.95
2018-04-14T06:45:33.336Z,17.81
2018-04-14T06:47:59.554Z,18.17
2018-04-14T06:50:25.749Z,18.42
2018-04-14T06:52:51.970Z,18.59
2018-04-14T06:55:18.206Z,18.64
2018-04-14T06:57:44.426Z,18.80
2018-04-14T07:00:10.655Z,18.91
2018-04-14T07:02:36.897Z,18.78
2018-04-14T07:05:03.167Z,18.86
2018-04-14T07:07:29.394Z,18.95
2018-04-14T07:09:55.669Z,19.08
2018-04-14T07:12:21.880Z,19.23
2018-04-14T07:14:48.110Z,19.38
2018-04-14T07:17:14.330Z,19.43
2018-04-14T07:19:40.539Z,19.47
2018-04-14T07:22:06.766Z,19.55
2018-04-14T07:24:32.990Z,19.54
2018-04-14T07:26:59.298Z,19.61
2018-04-14T07:29:25.514Z,19.62
2018-04-14T07:31:51.734Z,19.84
2018-04-14T07:34:17.998Z,19.97
2018-04-14T07:36:44.245Z,20.07
2018-04-14T07:39:10.474Z,20.28
2018-04-14T07:41:36.699Z,20.37
2018-04-14T07:44:02.947Z,20.43
2018-04-14T07:46:29.158Z,20.37
2018-04-14T07:48:55.381Z,20.24
2018-04-14T07:51:21.598Z,20.27
2018-04-14T07:53:47.821Z,20.35
2018-04-14T07:56:14.045Z,20.23
2018-04-14T07:58:40.324Z,20.47
2018-04-14T08:01:06.527Z,20.50
2018-04-14T08:03:32.811Z,20.55
2018-04-14T08:05:59.039Z,20.54
2018-04-14T08:08:25.254Z,20.69
2018-04-14T08:10:51.469Z,20.70
2018-04-14T08:13:17.714Z,20.88
2018-04-14T08:15:43.924Z,21.03
2018-04-14T08:18:10.283Z,21.10
2018-04-14T08:20:36.704Z,21.17
2018-04-14T08:23:02.923Z,21.23
2018-04-14T08:25:29.146Z,21.38
2018-04-14T08:27:55.369Z,21.51
2018-04-14T08:30:21.587Z,21.57
2018-04-14T08:32:47.813Z,21.62
2018-04-14T08:35:14.033Z,21.73
2018-04-14T08:37:40.246Z,21.84
2018-04-14T08:40:06.519Z,21.76
2018-04-14T08:42:32.830Z,21.94
2018-04-14T08:44:59.115Z,22.10
2018-04-14T08:47:25.344Z,22.08
2018-04-14T08:49:51.682Z,22.20
2018-04-14T08:52:17.950Z,22.35
2018-04-14T08:54:44.195Z,22.40
2018-04-14T08:57:10.401Z,22.39
2018-04-14T08:59:36.722Z,22.35
2018-04-14T09:02:02.997Z,22.42
2018-04-14T09:04:29.218Z,22.37
2018-04-14T09:06:55.453Z,22.28
2018-04-14T09:09:21.669Z,22.28
2018-04-14T09:11:47.897Z,22.38
2018-04-14T09:14:14.122Z,22.53
2018-04-14T09:16:40.334Z,22.58
2018-04-14T09:19:06.670Z,22.67
2018-04-14T09:21:33.010Z,22.54
2018-04-14T09:23:59.350Z,22.64
2018-04-14T09:26:25.932Z,22.83
2018-04-14T09:28:52.399Z,22.81
2018-04-14T09:31:18.734Z,22.91
2018-04-14T09:33:45.270Z,22.97
2018-04-14T09:36:11.594Z,23.11
2018-04-14T09:38:37.958Z,23.25
2018-04-14T09:41:04.350Z,23.40
2018-04-14T09:43:30.702Z,23.47
2018-04-14T09:45:57.053Z,23.34
2018-04-14T09:48:23.407Z,23.39
2018-04-14T09:50:49.758Z,23.31
2018-04-14T09:53:16.109Z,23.46
2018-04-14T09:55:42.446Z,23.49
2018-04-14T09:58:08.815Z,23.51
2018-04-14T10:00:41.335Z,23.46
2018-04-14T10:03:13.678Z,23.61
2018-04-14T10:05:40.046Z,23.71
2018-04-14T10:08:06.394Z,23.73
2018-04-14T10:10:32.786Z,23.76
2018-04-14T10:12:59.110Z,23.84
2018-04-14T10:15:25.443Z,23.91
2018-04-14T10:17:51.803Z,23.88
2018-04-14T10:20:18.134Z,24.09
2018-04-14T10:22:44.685Z,24.13
2018-04-14T10:25:11.035Z,24.17
2018-04-14T10:27:37.433Z,24.19
2018-04-14T10:30:03.854Z,24.24
2018-04-14T10:32:30.208Z,24.31
2018-04-14T10:34:56.554Z,24.34
2018-04-14T10:37:22.907Z,24.44
2018-04-14T10:39:49.299Z,24.23
2018-04-14T10:42:15.770Z,24.13
2018-04-14T10:44:42.278Z,24.22
2018-04-14T10:47:08.633Z,24.31
2018-04-14T10:49:35.177Z,24.19
2018-04-14T10:52:01.517Z,24.41
2018-04-14T10:54:27.862Z,24.33
2018-04-14T10:56:54.281Z,24.48
2018-04-14T10:59:20.630Z,24.52
2018-04-14T11:01:47.157Z,24.47
2018-04-14T11:04:13.566Z,24.57
2018-04-14T11:06:39.914Z,24.58
2018-04-14T11:09:06.257Z,24.64
2018-04-14T11:11:32.601Z,24.73
2018-04-14T11:13:58.966Z,24.71
2018-04-14T11:16:25.564Z,24.80
2018-04-14T11:18:51.912Z,24.77
2018-04-14T11:21:18.310Z,24.98
2018-04-14T11:23:44.672Z,25.03
2018-04-14T11:26:11.058Z,25.13
2018-04-14T11:28:37.421Z,25.08
2018-04-14T11:31:03.773Z,25.13
2018-04-14T11:33:30.141Z,25.12
2018-04-14T11:35:56.483Z,25.14
2018-04-14T11:38:22.822Z,25.17
2018-04-14T11:40:49.181Z,25.35
2018-04-14T11:43:15.598Z,25.35
2018-04-14T11:45:41.926Z,25.31
2018-04-14T11:48:08.276Z,25.24
2018-04-14T11:50:34.681Z,25.19
2018-04-14T11:53:01.143Z,25.25
2018-04-14T11:55:27.490Z,25.21
2018-04-14T11:57:53.823Z,25.15
2018-04-14T12:00:20.190Z,25.26
2018-04-14T12:02:46.535Z,25.22
2018-04-14T12:05:12.882Z,25.21
2018-04-14T12:07:39.273Z,25.29
2018-04-14T12:10:05.650Z,25.32
2018-04-14T12:12:32.025Z,25.40
2018-04-14T12:14:58.360Z,25.45
2018-04-14T12:17:24.705Z,25.36
2018-04-14T12:19:51.233Z,25.33
2018-04-14T12:22:17.595Z,25.26
2018-04-14T12:24:44.102Z,25.27
2018-04-14T12:27:10.477Z,25.22
2018-04-14T12:29:36.825Z,25.34
2018-04-14T12:32:03.186Z,25.43
2018-04-14T12:34:29.513Z,25.39
2018-04-14T12:36:55.853Z,25.45
2018-04-14T12:39:22.242Z,25.51
2018-04-14T12:41:48.653Z,25.47
2018-04-14T12:44:14.993Z,25.61
2018-04-14T12:46:41.466Z,25.71
2018-04-14T12:49:07.826Z,25.66
2018-04-14T12:51:34.175Z,25.61
2018-04-14T12:54:00.613Z,25.65
2018-04-14T12:56:27.006Z,25.75
2018-04-14T12:58:53.358Z,25.83
2018-04-14T13:01:19.690Z,25.73
2018-04-14T13:03:46.038Z,25.73
2018-04-14T13:06:12.422Z,25.69
2018-04-14T13:08:38.773Z,25.73
2018-04-14T13:11:05.269Z,25.66
2018-04-14T13:13:31.721Z,25.71
2018-04-14T13:15:58.221Z,25.78
2018-04-14T13:18:24.643Z,25.83
2018-04-14T13:20:50.985Z,25.81
2018-04-14T13:23:17.355Z,25.81
2018-04-14T13:25:43.718Z,25.80
2018-04-14T13:28:10.113Z,25.81
2018-04-14T13:30:36.474Z,25.76
2018-04-14T13:33:02.814Z,25.76
2018-04-14T13:35:29.166Z,25.82
2018-04-14T13:37:55.510Z,25.95
2018-04-14T13:40:21.890Z,25.93
2018-04-14T13:42:48.255Z,25.70
2018-04-14T13:45:14.615Z,25.61
2018-04-14T13:47:40.960Z,25.69
2018-04-14T13:50:07.314Z,25.73
2018-04-14T13:52:33.657Z,25.77
2018-04-14T13:54:59.991Z,25.76
2018-04-14T13:57:26.470Z,25.75
2018-04-14T13:59:52.841Z,25.74
2018-04-14T14:02:19.170Z,25.66
2018-04-14T14:04:45.519Z,25.74
2018-04-14T14:07:11.862Z,25.75
2018-04-14T14:09:38.203Z,25.78
2018-04-14T14:12:04.570Z,25.69
2018-04-14T14:14:30.945Z,25.68
2018-04-14T14:16:57.281Z,25.65
2018-04-14T14:19:23.634Z,25.72
2018-04-14T14:21:49.978Z,25.76
2018-04-14T14:24:16.314Z,25.72
2018-04-14T14:26:42.655Z,25.79
2018-04-14T14:29:09.166Z,25.74
2018-04-14T14:31:35.825Z,25.65
2018-04-14T14:34:02.277Z,25.59
2018-04-14T14:36:28.668Z,25.56
2018-04-14T14:38:55.025Z,25.50
2018-04-14T14:41:21.538Z,25.50
2018-04-14T14:43:47.905Z,25.49
2018-04-14T14:46:14.335Z,25.56
2018-04-14T14:48:40.763Z,25.59
2018-04-14T14:51:07.103Z,25.60
2018-04-14T14:53:33.446Z,25.60
2018-04-14T14:55:59.808Z,25.66
2018-04-14T14:58:26.297Z,25.59
2018-04-14T15:00:52.696Z,25.57
2018-04-14T15:03:19.027Z,25.58
2018-04-14T15:05:45.373Z,25.57
2018-04-14T15:08:11.741Z,25.57
2018-04-14T15:10:38.097Z,25.65
2018-04-14T15:13:04.489Z,25.56
2018-04-14T15:15:30.887Z,25.56
2018-04-14T15:17:57.220Z,25.57
2018-04-14T15:20:23.550Z,25.50
2018-04-14T15:22:49.884Z,25.49
2018-04-14T15:25:16.393Z,25.49
2018-04-14T15:27:42.734Z,25.41
2018-04-14T15:30:09.077Z,25.38
2018-04-14T15:32:35.414Z,25.40
2018-04-14T15:35:01.774Z,25.39
2018-04-14T15:37:28.110Z,25.33
2018-04-14T15:39:54.442Z,25.32
2018-04-14T15:42:20.834Z,25.16
2018-04-14T15:44:47.160Z,25.24
2018-04-14T15:47:13.495Z,25.22
2018-04-14T15:49:39.827Z,25.22
2018-04-14T15:52:06.158Z,25.20
2018-04-14T15:54:32.518Z,25.15
2018-04-14T15:56:58.854Z,25.11
2018-04-14T15:59:25.232Z,25.12
2018-04-14T16:01:51.688Z,25.09
2018-04-14T16:04:18.035Z,25.01
2018-04-14T16:06:44.386Z,24.91
2018-04-14T16:09:10.760Z,24.98
2018-04-14T16:11:37.143Z,24.86
2018-04-14T16:14:03.650Z,24.85
2018-04-14T16:16:29.980Z,24.67
2018-04-14T16:18:56.517Z,24.54
2018-04-14T16:21:22.945Z,24.43
2018-04-14T16:23:49.281Z,24.52
2018-04-14T16:26:15.630Z,24.50
2018-04-14T16:28:41.961Z,24.47
2018-04-14T16:31:08.300Z,24.43
2018-04-14T16:33:34.670Z,24.41
2018-04-14T16:36:01.041Z,24.37
2018-04-14T16:38:27.378Z,24.29
2018-04-14T16:40:53.721Z,24.27
2018-04-14T16:43:20.052Z,24.23
2018-04-14T16:45:46.390Z,24.19
2018-04-14T16:48:12.746Z,24.13
2018-04-14T16:50:39.103Z,24.04
2018-04-14T16:53:05.463Z,23.97
2018-04-14T16:55:31.817Z,23.85
2018-04-14T16:57:58.186Z,23.85
2018-04-14T17:00:24.512Z,23.77
2018-04-14T17:02:50.888Z,23.74
2018-04-14T17:05:17.241Z,23.74
2018-04-14T17:07:43.581Z,23.51
2018-04-14T17:10:09.926Z,23.54
2018-04-14T17:12:36.258Z,23.53
2018-04-14T17:15:02.645Z,23.51
2018-04-14T17:17:29.005Z,23.47
2018-04-14T17:19:55.366Z,23.43
2018-04-14T17:22:21.715Z,23.34
2018-04-14T17:24:48.045Z,23.32
2018-04-14T17:27:14.398Z,23.06
2018-04-14T17:29:40.762Z,22.84
2018-04-14T17:32:07.102Z,23.06
2018-04-14T17:34:34.961Z,23.12
2018-04-14T17:37:02.352Z,23.16
2018-04-14T17:39:28.689Z,23.09
2018-04-14T17:41:55.074Z,23.10
2018-04-14T17:44:21.613Z,23.06
2018-04-14T17:46:48.050Z,23.03
2018-04-14T17:49:14.393Z,23.02
2018-04-14T17:51:40.730Z,22.91
2018-04-14T17:54:07.085Z,22.80
2018-04-14T17:56:33.448Z,22.75
2018-04-14T17:58:59.779Z,22.76
2018-04-14T18:01:26.158Z,22.76
2018-04-14T18:03:52.557Z,22.43
2018-04-14T18:06:18.951Z,22.56
2018-04-14T18:08:45.303Z,22.59
2018-04-14T18:11:11.882Z,22.56
2018-04-14T18:13:38.214Z,22.53
2018-04-14T18:16:04.573Z,22.54
2018-04-14T18:18:30.909Z,22.57
2018-04-14T18:20:57.246Z,22.48
2018-04-14T18:23:23.597Z,22.50
2018-04-14T18:25:49.946Z,22.45
2018-04-14T18:28:16.369Z,22.39
2018-04-14T18:30:42.718Z,22.28
2018-04-14T18:33:09.069Z,22.36
2018-04-14T18:35:35.430Z,22.31
2018-04-14T18:38:01.793Z,22.23
2018-04-14T18:40:28.179Z,22.21
2018-04-14T18:42:54.557Z,22.13
2018-04-14T18:45:20.918Z,22.04
2018-04-14T18:47:47.282Z,21.92
2018-04-14T18:50:13.717Z,21.70
2018-04-14T18:52:40.103Z,21.68
2018-04-14T18:55:06.441Z,21.61
2018-04-14T18:57:32.772Z,21.48
2018-04-14T18:59:59.347Z,21.40
2018-04-14T19:02:25.857Z,21.09
2018-04-14T19:04:52.195Z,20.67
2018-04-14T19:07:18.568Z,20.86
2018-04-14T19:09:44.914Z,20.76
2018-04-14T19:12:11.315Z,20.82
2018-04-14T19:14:37.653Z,20.81
2018-04-14T19:17:03.995Z,20.77
2018-04-14T19:19:30.433Z,20.77
2018-04-14T19:21:56.806Z,20.78
2018-04-14T19:24:23.230Z,20.73
2018-04-14T19:26:49.575Z,20.79
2018-04-14T19:29:15.930Z,20.60
2018-04-14T19:31:42.286Z,20.41
2018-04-14T19:34:08.665Z,20.49
2018-04-14T19:36:35.003Z,20.41
2018-04-14T19:39:01.419Z,20.30
2018-04-14T19:41:27.770Z,20.26
2018-04-14T19:43:54.098Z,20.20
2018-04-14T19:46:20.441Z,20.13
2018-04-14T19:48:47.424Z,20.18
2018-04-14T19:51:14.064Z,19.94
2018-04-14T19:53:40.437Z,19.93
2018-04-14T19:56:06.799Z,19.96
2018-04-14T19:58:40.255Z,19.61
2018-04-14T20:01:06.642Z,18.95
2018-04-14T20:03:32.961Z,19.22
2018-04-14T20:05:59.311Z,19.38
2018-04-14T20:08:25.650Z,19.33
2018-04-14T20:10:51.981Z,19.41
2018-04-14T20:13:18.476Z,19.16
2018-04-14T20:15:44.790Z,18.92
2018-04-14T20:18:11.112Z,19.11
2018-04-14T20:20:37.507Z,19.31
2018-04-14T20:23:03.842Z,19.35
2018-04-14T20:25:30.178Z,19.36
2018-04-14T20:27:56.509Z,19.24
2018-04-14T20:30:22.993Z,18.69
2018-04-14T20:32:49.370Z,18.89
2018-04-14T20:35:15.698Z,18.47
2018-04-14T20:37:42.969Z,18.60
2018-04-14T20:40:09.376Z,18.66
2018-04-14T20:42:35.699Z,18.52
2018-04-14T20:45:02.042Z,18.12
2018-04-14T20:47:28.374Z,18.54
2018-04-14T20:49:54.818Z,18.65
2018-04-14T20:52:21.169Z,18.72
2018-04-14T20:54:47.695Z,18.07
2018-04-14T20:57:14.046Z,18.08
2018-04-14T20:59:40.381Z,17.95
2018-04-14T21:02:06.937Z,17.47
2018-04-14T21:04:33.433Z,17.05
2018-04-14T21:06:59.837Z,17.50
2018-04-14T21:09:26.166Z,16.97
2018-04-14T21:11:52.528Z,16.87
2018-04-14T21:14:18.962Z,16.65
2018-04-14T21:16:45.281Z,16.84
2018-04-14T21:19:11.623Z,16.70
2018-04-14T21:21:37.974Z,16.25
2018-04-14T21:24:04.329Z,15.97
2018-04-14T21:26:30.818Z,16.59
2018-04-14T21:28:57.210Z,16.68
2018-04-14T21:31:23.570Z,16.56
2018-04-14T21:33:49.927Z,16.31
2018-04-14T21:36:16.266Z,16.01
2018-04-14T21:38:42.663Z,16.06
2018-04-14T21:41:09.045Z,16.10
2018-04-14T21:43:35.533Z,16.09
2018-04-14T21:46:01.885Z,15.63
2018-04-14T21:48:28.212Z,15.92
2018-04-14T21:50:54.605Z,15.72
2018-04-14T21:53:21.001Z,15.50
2018-04-14T21:55:47.347Z,15.76
2018-04-14T21:58:13.795Z,15.61
2018-04-14T22:00:40.279Z,15.55
2018-04-14T22:03:06.659Z,15.15
2018-04-14T22:05:33.064Z,15.12
2018-04-14T22:07:59.646Z,15.43
2018-04-14T22:10:26.324Z,15.48
2018-04-14T22:12:54.510Z,15.36
2018-04-14T22:15:21.955Z,15.01
2018-04-14T22:17:48.309Z,15.07
2018-04-14T22:20:14.637Z,15.40
2018-04-14T22:22:41.069Z,15.74
2018-04-14T22:25:07.461Z,15.95
2018-04-14T22:27:34.067Z,15.69
2018-04-14T22:30:00.470Z,15.59
2018-04-14T22:32:26.810Z,15.44
2018-04-14T22:34:53.178Z,15.38
2018-04-14T22:37:19.521Z,15.18
2018-04-14T22:39:45.909Z,15.14
2018-04-14T22:42:12.237Z,15.48
2018-04-14T22:44:38.589Z,15.40
2018-04-14T22:47:04.970Z,15.41
2018-04-14T22:49:31.310Z,15.32
2018-04-14T22:51:57.661Z,15.38
2018-04-14T22:54:24.067Z,14.78
2018-04-14T22:56:50.500Z,15.30
2018-04-14T22:59:16.934Z,15.53
2018-04-14T23:01:43.269Z,15.17
2018-04-14T23:04:09.638Z,14.82
2018-04-14T23:06:35.979Z,14.91
2018-04-14T23:09:02.469Z,14.77
2018-04-14T23:11:28.832Z,14.75
2018-04-14T23:13:55.173Z,14.54
2018-04-14T23:16:21.531Z,14.71
2018-04-14T23:18:47.870Z,14.70
2018-04-14T23:21:14.218Z,14.41
2018-04-14T23:23:40.558Z,14.89
2018-04-14T23:26:06.934Z,14.69
2018-04-14T23:28:33.313Z,15.09
2018-04-14T23:30:59.671Z,14.75
2018-04-14T23:33:26.026Z,14.67
2018-04-14T23:35:52.407Z,14.84
2018-04-14T23:38:18.743Z,14.89
2018-04-14T23:40:45.080Z,14.94
2018-04-14T23:43:11.414Z,14.83
2018-04-14T23:45:37.754Z,14.65
2018-04-14T23:48:04.109Z,15.01
2018-04-14T23:50:30.514Z,15.18
2018-04-14T23:52:56.857Z,14.98
2018-04-14T23:55:23.189Z,14.82
2018-04-14T23:57:49.542Z,14.70
